Time;durP1;ratioP1;P1;durP2;ratioP2;P2;SDS_P1;SDS_P2;PMS_P1;PMS_P2;Temp;Humidity;BMP_temperature;BMP_pressure;BME280_temperature;BME280_humidity;BME280_pressure;Samples;Min_cycle;Max_cycle;Signal;HPM_P1;HPM_P2
2022/04/11 00:02:06;;;;;;;6.38;2.17;;;10.80;73.70;;;;;;4989253;28;20541;-73
2022/04/11 00:04:31;;;;;;;5.55;2.22;;;10.70;73.70;;;;;;5012839;28;20072;-73
2022/04/11 00:06:57;;;;;;;5.03;2.08;;;10.80;73.60;;;;;;5026634;28;20057;-73
2022/04/11 00:09:22;;;;;;;6.00;2.20;;;10.70;73.50;;;;;;5026770;28;20483;-72
2022/04/11 00:11:48;;;;;;;4.63;2.33;;;10.70;73.50;;;;;;5026785;28;20025;-73
2022/04/11 00:14:14;;;;;;;5.63;2.13;;;10.70;73.40;;;;;;5009572;28;20108;-71
2022/04/11 00:16:39;;;;;;;4.53;2.13;;;10.70;73.60;;;;;;5026113;28;20037;-73
2022/04/11 00:19:05;;;;;;;5.47;2.20;;;10.70;73.60;;;;;;5005364;28;20434;-72
2022/04/11 00:21:31;;;;;;;5.40;2.15;;;10.70;74.10;;;;;;5006295;28;20116;-74
2022/04/11 00:23:56;;;;;;;5.78;2.45;;;10.70;73.50;;;;;;5000344;28;20061;-73
2022/04/11 00:26:22;;;;;;;6.22;2.85;;;10.70;73.40;;;;;;5025974;28;20107;-73
2022/04/11 00:28:47;;;;;;;6.25;2.50;;;10.70;73.50;;;;;;5026632;28;20508;-73
2022/04/11 00:31:13;;;;;;;4.75;2.22;;;10.70;73.40;;;;;;5026082;28;20033;-73
2022/04/11 00:33:38;;;;;;;5.38;2.40;;;10.60;73.40;;;;;;5009342;28;20026;-75
2022/04/11 00:36:04;;;;;;;7.20;2.90;;;10.70;73.50;;;;;;5026272;28;20029;-73
2022/04/11 00:38:30;;;;;;;4.70;2.72;;;10.70;73.40;;;;;;5026685;28;20060;-74
2022/04/11 00:40:55;;;;;;;6.57;2.67;;;10.70;73.50;;;;;;5009177;28;20030;-73
2022/04/11 00:43:41;;;;;;;5.45;2.38;;;10.70;73.50;;;;;;4990292;28;20224;-73
2022/04/11 00:46:08;;;;;;;5.20;2.45;;;10.70;74.00;;;;;;4998412;28;20519;-71
2022/04/11 00:48:35;;;;;;;4.78;2.50;;;10.70;73.50;;;;;;5026810;28;20032;-74
2022/04/11 00:51:10;;;;;;;6.63;2.65;;;10.70;73.50;;;;;;5026586;28;20030;-73
2022/04/11 00:53:38;;;;;;;4.43;2.30;;;10.70;73.60;;;;;;5008515;28;20037;-74
2022/04/11 00:56:06;;;;;;;5.65;2.83;;;10.70;73.50;;;;;;5026278;28;20029;-73
2022/04/11 00:58:33;;;;;;;5.72;3.00;;;10.70;73.60;;;;;;5008298;28;20029;-73
2022/04/11 01:00:59;;;;;;;6.32;3.03;;;10.70;73.50;;;;;;5026325;28;20063;-73
2022/04/11 01:03:25;;;;;;;6.60;2.80;;;10.70;73.60;;;;;;5025088;28;20486;-74
2022/04/11 01:05:50;;;;;;;6.00;3.15;;;10.70;73.50;;;;;;5025114;28;20025;-74
2022/04/11 01:08:16;;;;;;;5.95;3.08;;;10.70;73.50;;;;;;5025091;28;20065;-72
2022/04/11 01:10:43;;;;;;;6.20;3.10;;;10.70;73.40;;;;;;5026070;28;20030;-74
2022/04/11 01:13:08;;;;;;;7.13;3.58;;;10.60;73.40;;;;;;5008574;28;20540;-73
2022/04/11 01:15:34;;;;;;;6.28;3.05;;;10.70;73.50;;;;;;5008129;28;20033;-73
2022/04/11 01:18:00;;;;;;;6.40;3.17;;;10.70;73.40;;;;;;5008325;28;20580;-71
2022/04/11 01:20:25;;;;;;;6.88;3.55;;;10.70;73.50;;;;;;5025767;28;20110;-73
2022/04/11 01:22:51;;;;;;;6.25;3.40;;;10.70;73.60;;;;;;5008133;28;20485;-72
2022/04/11 01:25:19;;;;;;;7.38;3.63;;;10.70;73.50;;;;;;5026061;28;20041;-74
2022/04/11 01:27:45;;;;;;;7.80;3.65;;;10.70;73.40;;;;;;5003698;28;20025;-72
2022/04/11 01:30:14;;;;;;;6.63;3.63;;;10.70;73.40;;;;;;5016226;28;20022;-76
2022/04/11 01:32:40;;;;;;;6.55;3.50;;;10.70;73.40;;;;;;5006291;28;20034;-73
2022/04/11 01:35:27;;;;;;;6.72;3.53;;;10.60;73.40;;;;;;5006084;28;20030;-72
2022/04/11 01:37:55;;;;;;;6.88;3.30;;;10.70;73.40;;;;;;5002332;28;20141;-73
2022/04/11 01:40:21;;;;;;;6.63;3.10;;;10.70;73.30;;;;;;5007572;28;20025;-73
2022/04/11 01:42:47;;;;;;;7.05;3.60;;;10.70;73.30;;;;;;5008279;28;20091;-75
2022/04/11 01:45:13;;;;;;;6.30;3.60;;;10.70;73.20;;;;;;5004638;28;20498;-74
2022/04/11 01:47:40;;;;;;;5.57;3.35;;;10.70;73.30;;;;;;4988127;28;20034;-73
2022/04/11 01:50:09;;;;;;;6.35;3.58;;;10.70;73.30;;;;;;5001060;28;20025;-74
2022/04/11 01:52:36;;;;;;;5.70;3.28;;;10.60;73.10;;;;;;5007622;28;20067;-74
2022/04/11 01:55:03;;;;;;;7.47;3.58;;;10.70;73.20;;;;;;5006770;28;20053;-74
2022/04/11 01:57:29;;;;;;;6.65;3.45;;;10.70;73.40;;;;;;5024905;28;20108;-74
2022/04/11 01:59:54;;;;;;;6.70;3.47;;;10.60;73.20;;;;;;5007338;28;20044;-73
2022/04/11 02:02:20;;;;;;;5.85;3.47;;;10.70;73.30;;;;;;5025539;28;20030;-74
2022/04/11 02:04:45;;;;;;;6.25;3.75;;;10.70;73.30;;;;;;5024093;28;20033;-74
2022/04/11 02:07:11;;;;;;;7.60;3.63;;;10.70;73.30;;;;;;5025148;28;20505;-74
2022/04/11 02:09:36;;;;;;;6.55;3.72;;;10.70;73.80;;;;;;5007736;28;20064;-74
2022/04/11 02:12:02;;;;;;;6.97;3.67;;;10.70;73.30;;;;;;5025149;28;20494;-74
2022/04/11 02:14:27;;;;;;;6.80;4.00;;;10.60;73.30;;;;;;5024314;28;20028;-74
2022/04/11 02:16:53;;;;;;;5.65;3.55;;;10.70;73.20;;;;;;4989566;28;20092;-74
2022/04/11 02:19:18;;;;;;;7.75;3.92;;;10.60;73.20;;;;;;5009377;28;20083;-73
2022/04/11 02:21:44;;;;;;;6.68;3.90;;;10.70;73.20;;;;;;4991979;28;20403;-73
2022/04/11 02:24:09;;;;;;;8.02;4.30;;;10.70;73.20;;;;;;5026576;28;20025;-74
2022/04/11 02:26:35;;;;;;;7.60;4.53;;;10.70;73.10;;;;;;5028824;28;20060;-75
2022/04/11 02:29:00;;;;;;;8.23;4.72;;;10.60;73.10;;;;;;5029354;28;20033;-72
2022/04/11 02:31:26;;;;;;;9.50;5.50;;;10.70;73.20;;;;;;5029075;28;20076;-74
2022/04/11 02:33:51;;;;;;;10.38;6.05;;;10.70;73.20;;;;;;5011018;28;20029;-72
2022/04/11 02:36:17;;;;;;;10.68;6.63;;;10.60;73.10;;;;;;5004964;28;20022;-75
2022/04/11 02:38:42;;;;;;;13.43;7.50;;;10.70;73.20;;;;;;4993374;28;20096;-73
2022/04/11 02:41:08;;;;;;;11.95;6.93;;;10.60;73.10;;;;;;5006560;28;20479;-74
2022/04/11 02:43:33;;;;;;;12.40;7.45;;;10.70;73.30;;;;;;5019064;28;20029;-73
2022/04/11 02:45:59;;;;;;;14.95;8.35;;;10.60;73.10;;;;;;5036493;28;20045;-73
2022/04/11 02:48:24;;;;;;;14.80;8.45;;;10.70;73.20;;;;;;5028789;28;20026;-73
2022/04/11 02:50:51;;;;;;;13.20;7.82;;;10.60;73.00;;;;;;5010719;28;20231;-72
2022/04/11 02:53:16;;;;;;;12.05;7.50;;;10.60;73.20;;;;;;4998243;28;20510;-74
2022/04/11 02:55:42;;;;;;;13.38;7.63;;;10.60;73.20;;;;;;4990871;28;20133;-72
2022/04/11 02:58:07;;;;;;;18.20;7.97;;;10.60;73.10;;;;;;5008895;28;20026;-73
2022/04/11 03:00:33;;;;;;;15.80;8.02;;;10.60;73.10;;;;;;5023249;28;20041;-73
2022/04/11 03:02:59;;;;;;;17.75;7.75;;;10.60;73.00;;;;;;5010994;28;20026;-73
2022/04/11 03:05:24;;;;;;;17.75;7.28;;;10.60;73.20;;;;;;5003337;28;20033;-73
2022/04/11 03:07:50;;;;;;;15.80;7.90;;;10.60;73.10;;;;;;5023145;28;20041;-72
2022/04/11 03:10:15;;;;;;;13.38;7.50;;;10.50;73.00;;;;;;5010840;28;20543;-74
2022/04/11 03:12:40;;;;;;;14.48;7.28;;;10.60;73.10;;;;;;5010535;28;20022;-72
2022/04/11 03:15:07;;;;;;;12.40;6.70;;;10.60;73.00;;;;;;5028312;28;20114;-73
2022/04/11 03:17:32;;;;;;;12.93;6.82;;;10.60;73.00;;;;;;5026606;28;20060;-73
2022/04/11 03:19:58;;;;;;;11.27;6.68;;;10.70;73.20;;;;;;5010608;28;20053;-74
2022/04/11 03:22:23;;;;;;;11.15;6.90;;;10.70;73.00;;;;;;5010343;28;20033;-72
2022/04/11 03:24:49;;;;;;;14.95;6.90;;;10.60;73.10;;;;;;5010376;28;20021;-73
2022/04/11 03:27:14;;;;;;;13.18;6.28;;;10.60;73.10;;;;;;5009445;28;20376;-73
2022/04/11 03:29:40;;;;;;;13.10;6.78;;;10.60;73.20;;;;;;4999928;28;20018;-74
2022/04/11 03:32:06;;;;;;;12.70;6.50;;;10.60;73.10;;;;;;5007087;28;20048;-73
2022/04/11 03:34:31;;;;;;;11.48;6.32;;;10.60;73.00;;;;;;5025998;28;20021;-72
2022/04/11 03:36:57;;;;;;;13.95;7.50;;;10.60;73.10;;;;;;5027665;28;20489;-74
2022/04/11 03:39:22;;;;;;;13.18;7.82;;;10.60;73.00;;;;;;5026502;28;20033;-73
2022/04/11 03:41:48;;;;;;;11.05;6.85;;;10.60;73.00;;;;;;5026367;28;20446;-74
2022/04/11 03:44:13;;;;;;;12.32;7.25;;;10.60;73.00;;;;;;5027185;28;20021;-72
2022/04/11 03:46:39;;;;;;;12.70;6.93;;;10.60;73.00;;;;;;5027274;28;20036;-74
2022/04/11 03:49:05;;;;;;;11.77;6.95;;;10.70;73.10;;;;;;5027805;28;20033;-75
2022/04/11 03:51:31;;;;;;;11.25;6.85;;;10.60;73.00;;;;;;5009906;28;20113;-75
2022/04/11 03:53:57;;;;;;;12.52;7.40;;;10.60;72.90;;;;;;5005890;28;20077;-74
2022/04/11 03:56:22;;;;;;;10.43;6.60;;;10.60;73.00;;;;;;5007299;28;20054;-73
2022/04/11 03:58:48;;;;;;;11.02;6.43;;;10.60;73.00;;;;;;5007743;28;20565;-73
2022/04/11 04:01:13;;;;;;;9.50;6.18;;;10.60;73.00;;;;;;5025877;28;20557;-74
2022/04/11 04:03:40;;;;;;;9.43;6.63;;;10.60;72.90;;;;;;5027503;28;20084;-74
2022/04/11 04:06:06;;;;;;;10.10;6.70;;;10.60;73.40;;;;;;5026866;28;20032;-72
2022/04/11 04:08:31;;;;;;;9.75;6.47;;;10.60;72.90;;;;;;5027240;28;20071;-73
2022/04/11 04:10:57;;;;;;;9.88;6.15;;;10.60;72.90;;;;;;5026916;28;20029;-71
2022/04/11 04:13:22;;;;;;;10.75;6.32;;;10.60;73.00;;;;;;5009489;28;20129;-73
2022/04/11 04:15:48;;;;;;;9.45;6.40;;;10.60;73.00;;;;;;5025802;28;20040;-72
2022/04/11 04:18:13;;;;;;;10.02;6.35;;;10.60;72.80;;;;;;5009357;28;20508;-73
2022/04/11 04:20:40;;;;;;;8.90;6.05;;;10.60;72.90;;;;;;5004141;28;20479;-73
2022/04/11 04:23:06;;;;;;;9.10;5.57;;;10.60;72.80;;;;;;4989896;28;20038;-73
2022/04/11 04:25:35;;;;;;;9.85;6.13;;;10.60;72.80;;;;;;5005862;28;20030;-72
2022/04/11 04:28:02;;;;;;;9.48;5.50;;;10.60;72.80;;;;;;5026735;28;20040;-74
2022/04/11 04:30:30;;;;;;;10.68;6.50;;;10.60;72.90;;;;;;5006275;28;20026;-73
2022/04/11 04:32:57;;;;;;;8.43;5.22;;;10.60;72.90;;;;;;5008398;28;20033;-72
2022/04/11 04:35:23;;;;;;;10.07;5.78;;;10.60;72.90;;;;;;5009198;28;20072;-74
2022/04/11 04:37:48;;;;;;;9.80;6.35;;;10.60;72.80;;;;;;5026181;28;20025;-72
2022/04/11 04:40:14;;;;;;;8.50;5.57;;;10.60;72.80;;;;;;5024813;28;20429;-73
2022/04/11 04:42:39;;;;;;;9.05;5.75;;;10.60;72.80;;;;;;5012470;28;20148;-73
2022/04/11 04:45:06;;;;;;;8.50;5.57;;;10.60;72.70;;;;;;5023781;28;20021;-74
2022/04/11 04:47:32;;;;;;;8.23;5.70;;;10.60;72.70;;;;;;5008433;28;20030;-72
2022/04/11 04:49:57;;;;;;;8.45;5.88;;;10.60;72.80;;;;;;5005856;28;20084;-74
2022/04/11 04:52:23;;;;;;;8.40;5.63;;;10.60;72.70;;;;;;5026566;28;20088;-74
2022/04/11 04:54:48;;;;;;;9.35;5.85;;;10.60;72.60;;;;;;5027356;28;20029;-73
2022/04/11 04:57:14;;;;;;;10.63;6.07;;;10.60;72.70;;;;;;5034861;28;20071;-74
2022/04/11 04:59:39;;;;;;;8.23;5.75;;;10.60;72.60;;;;;;5017963;28;20040;-75
2022/04/11 05:02:05;;;;;;;10.38;5.72;;;10.60;72.70;;;;;;5025262;28;20033;-74
2022/04/11 05:04:30;;;;;;;7.95;5.50;;;10.60;72.70;;;;;;5002402;28;20397;-74
2022/04/11 05:06:56;;;;;;;8.30;5.65;;;10.50;72.60;;;;;;5024389;28;20036;-75
2022/04/11 05:09:21;;;;;;;8.52;5.40;;;10.60;73.30;;;;;;5027056;28;20033;-73
2022/04/11 05:11:47;;;;;;;9.30;5.70;;;10.60;72.60;;;;;;5008595;28;20026;-76
2022/04/11 05:14:12;;;;;;;9.43;5.63;;;10.60;72.60;;;;;;5027056;28;20029;-74
2022/04/11 05:16:38;;;;;;;7.88;5.20;;;10.60;72.60;;;;;;5026031;28;20044;-75
2022/04/11 05:19:03;;;;;;;9.60;5.43;;;10.60;73.00;;;;;;5007158;28;20084;-73
2022/04/11 05:21:30;;;;;;;9.70;5.72;;;10.60;69.60;;;;;;5008220;28;20032;-75
2022/04/11 05:23:56;;;;;;;9.32;5.82;;;10.50;70.30;;;;;;5026132;28;20040;-74
2022/04/11 05:26:21;;;;;;;9.52;5.97;;;10.50;70.80;;;;;;5026077;28;20486;-76
2022/04/11 05:28:50;;;;;;;8.82;5.80;;;10.40;71.20;;;;;;5001288;28;20040;-75
2022/04/11 05:31:19;;;;;;;9.52;5.88;;;10.50;71.40;;;;;;5024130;28;20033;-74
2022/04/11 05:33:47;;;;;;;9.75;5.93;;;10.50;71.70;;;;;;5015344;28;20398;-79
2022/04/11 05:36:17;;;;;;;14.15;6.10;;;10.60;72.40;;;;;;5024466;28;20105;-73
2022/04/11 05:38:42;;;;;;;14.55;6.10;;;10.60;72.20;;;;;;5025765;28;20034;-74
2022/04/11 05:41:08;;;;;;;12.10;5.90;;;10.60;71.80;;;;;;5024055;28;20091;-74
2022/04/11 05:43:34;;;;;;;11.45;6.13;;;10.60;71.60;;;;;;5025384;28;20099;-75
2022/04/11 05:46:01;;;;;;;12.88;6.13;;;10.60;71.60;;;;;;5024944;28;20053;-74
2022/04/11 05:48:28;;;;;;;8.68;5.63;;;10.60;71.70;;;;;;5024952;28;20021;-75
2022/04/11 05:50:53;;;;;;;12.00;5.95;;;10.60;71.80;;;;;;5024085;28;20053;-74
2022/04/11 05:53:19;;;;;;;10.13;5.32;;;10.60;71.90;;;;;;5007623;28;20072;-75
2022/04/11 05:55:44;;;;;;;11.60;5.60;;;10.60;72.00;;;;;;5025409;28;20037;-73
2022/04/11 05:58:10;;;;;;;11.98;5.72;;;10.60;72.00;;;;;;5024553;28;20048;-75
2022/04/11 06:00:35;;;;;;;8.93;5.43;;;10.60;71.90;;;;;;5025699;28;20041;-75
2022/04/11 06:03:01;;;;;;;10.90;5.70;;;10.60;71.90;;;;;;5008195;28;20057;-73
2022/04/11 06:05:26;;;;;;;11.02;5.85;;;10.70;72.00;;;;;;5024351;28;20025;-74
2022/04/11 06:07:52;;;;;;;8.88;5.10;;;10.60;72.00;;;;;;5025624;28;20025;-74
2022/04/11 06:10:17;;;;;;;10.65;6.05;;;10.70;72.10;;;;;;5025613;28;20024;-74
2022/04/11 06:12:43;;;;;;;11.07;5.57;;;10.70;72.10;;;;;;5025900;28;20037;-75
2022/04/11 06:15:11;;;;;;;8.52;5.15;;;10.70;72.00;;;;;;5025763;28;20084;-74
2022/04/11 06:17:36;;;;;;;8.18;5.43;;;10.70;72.10;;;;;;5007540;28;20030;-73
2022/04/11 06:20:02;;;;;;;9.95;5.80;;;10.70;72.10;;;;;;5008105;28;20033;-74
2022/04/11 06:22:28;;;;;;;8.73;5.15;;;10.70;72.00;;;;;;5025560;28;20040;-73
2022/04/11 06:25:00;;;;;;;7.53;4.95;;;10.80;72.40;;;;;;5025700;28;20029;-74
2022/04/11 06:27:27;;;;;;;8.63;5.05;;;10.70;72.00;;;;;;5007728;28;20076;-74
2022/04/11 06:29:56;;;;;;;8.95;5.22;;;10.80;72.00;;;;;;5025453;28;20033;-74
2022/04/11 06:32:29;;;;;;;11.32;5.47;;;10.70;72.00;;;;;;5007585;28;20025;-73
2022/04/11 06:34:55;;;;;;;8.00;4.93;;;10.80;72.10;;;;;;5007857;28;20029;-74
2022/04/11 06:37:24;;;;;;;7.60;4.55;;;10.80;72.00;;;;;;5025159;28;20040;-74
2022/04/11 06:39:50;;;;;;;7.72;5.05;;;10.80;72.10;;;;;;5025441;28;20041;-75
2022/04/11 06:42:16;;;;;;;8.02;5.00;;;10.80;72.60;;;;;;5025129;28;20894;-73
2022/04/11 06:44:41;;;;;;;7.05;4.60;;;10.80;72.10;;;;;;5025525;28;20030;-74
2022/04/11 06:47:08;;;;;;;7.20;4.75;;;10.80;72.10;;;;;;5024033;28;20060;-73
2022/04/11 06:49:34;;;;;;;7.85;4.88;;;10.90;72.10;;;;;;5025300;28;20018;-75
2022/04/11 06:52:00;;;;;;;7.47;4.75;;;10.90;72.10;;;;;;5025050;28;20601;-73
2022/04/11 06:54:25;;;;;;;7.50;4.97;;;10.90;72.10;;;;;;5025296;28;20049;-75
2022/04/11 06:56:51;;;;;;;7.40;4.43;;;10.90;72.20;;;;;;5006875;28;20030;-73
2022/04/11 06:59:16;;;;;;;7.78;4.90;;;10.80;72.10;;;;;;5025016;28;20049;-74
2022/04/11 07:01:42;;;;;;;7.82;4.93;;;10.90;72.30;;;;;;5007431;28;20029;-72
2022/04/11 07:04:08;;;;;;;7.20;4.82;;;10.90;72.20;;;;;;5026673;28;20108;-74
2022/04/11 07:06:33;;;;;;;8.73;4.55;;;10.90;72.20;;;;;;5028079;28;20053;-74
2022/04/11 07:08:59;;;;;;;7.05;4.60;;;10.90;72.20;;;;;;5028585;28;20108;-74
2022/04/11 07:11:24;;;;;;;8.35;5.20;;;10.90;72.10;;;;;;5028645;28;20033;-74
2022/04/11 07:13:50;;;;;;;6.82;4.22;;;10.90;72.10;;;;;;5027176;28;20071;-73
2022/04/11 07:16:15;;;;;;;7.18;4.45;;;10.90;72.10;;;;;;5027998;28;20104;-73
2022/04/11 07:18:41;;;;;;;7.05;4.57;;;11.00;72.20;;;;;;5028206;28;20033;-72
2022/04/11 07:21:06;;;;;;;8.05;4.97;;;11.00;72.10;;;;;;5028373;28;20060;-74
2022/04/11 07:23:32;;;;;;;7.60;4.63;;;11.00;72.10;;;;;;5028364;28;20443;-74
2022/04/11 07:25:57;;;;;;;8.27;4.40;;;11.00;72.20;;;;;;5028090;28;20038;-74
2022/04/11 07:28:23;;;;;;;8.98;4.55;;;11.00;72.20;;;;;;5028182;28;20051;-74
2022/04/11 07:30:48;;;;;;;7.45;4.47;;;11.00;72.10;;;;;;5028125;28;20402;-74
2022/04/11 07:33:14;;;;;;;7.80;4.88;;;11.00;72.20;;;;;;5010432;28;20025;-75
2022/04/11 07:35:39;;;;;;;6.43;4.18;;;11.10;72.20;;;;;;5027711;28;20022;-73
2022/04/11 07:38:05;;;;;;;8.25;4.53;;;11.10;72.20;;;;;;5010380;28;20029;-73
2022/04/11 07:40:31;;;;;;;7.15;4.38;;;11.10;72.10;;;;;;5028093;28;20452;-72
2022/04/11 07:42:56;;;;;;;6.85;4.15;;;11.10;72.10;;;;;;5027985;28;20498;-74
2022/04/11 07:45:22;;;;;;;7.13;4.07;;;11.10;72.60;;;;;;5010209;28;20121;-73
2022/04/11 07:47:48;;;;;;;7.40;4.43;;;11.20;72.00;;;;;;5027397;28;20041;-74
2022/04/11 07:50:14;;;;;;;7.88;4.07;;;11.20;71.90;;;;;;5027767;28;20121;-72
2022/04/11 07:52:42;;;;;;;7.05;4.35;;;11.20;71.80;;;;;;5027938;28;20108;-74
2022/04/11 07:55:09;;;;;;;6.18;4.07;;;11.30;71.90;;;;;;5026338;28;20046;-74
2022/04/11 07:57:35;;;;;;;6.75;4.13;;;11.30;71.90;;;;;;5027511;28;20032;-74
2022/04/11 08:00:00;;;;;;;6.18;4.03;;;11.20;71.90;;;;;;5027408;28;20494;-75
2022/04/11 08:02:26;;;;;;;6.97;4.30;;;11.20;71.90;;;;;;5027665;28;20033;-74
2022/04/11 08:04:52;;;;;;;7.43;4.30;;;11.30;72.00;;;;;;5025998;28;20060;-74
2022/04/11 08:07:18;;;;;;;6.82;4.22;;;11.30;71.90;;;;;;5026819;28;20097;-75
2022/04/11 08:09:44;;;;;;;7.07;4.10;;;11.30;71.90;;;;;;5027209;28;20033;-73
2022/04/11 08:12:10;;;;;;;7.07;4.57;;;11.30;71.90;;;;;;5026057;28;20080;-74
2022/04/11 08:14:35;;;;;;;7.03;4.45;;;11.30;71.90;;;;;;5009091;28;20025;-73
2022/04/11 08:17:03;;;;;;;6.72;4.10;;;11.40;71.90;;;;;;5026413;28;20025;-74
2022/04/11 08:19:32;;;;;;;6.40;4.00;;;11.40;71.80;;;;;;5025937;28;20029;-75
2022/04/11 08:21:58;;;;;;;7.32;4.35;;;11.40;71.80;;;;;;5027137;28;20029;-72
2022/04/11 08:24:24;;;;;;;6.18;4.00;;;11.40;71.80;;;;;;5009515;28;20029;-74
2022/04/11 08:26:49;;;;;;;6.05;4.05;;;11.40;71.80;;;;;;5008795;28;20061;-72
2022/04/11 08:29:17;;;;;;;7.40;4.10;;;11.40;71.90;;;;;;5027031;28;20124;-74
2022/04/11 08:31:43;;;;;;;6.00;3.80;;;11.40;71.90;;;;;;5027088;28;20029;-73
2022/04/11 08:34:08;;;;;;;6.63;4.05;;;11.40;72.00;;;;;;5009217;28;20470;-75
2022/04/11 08:36:34;;;;;;;6.05;3.90;;;11.30;72.00;;;;;;5025196;28;20041;-73
2022/04/11 08:39:00;;;;;;;7.20;3.97;;;11.30;72.20;;;;;;5026991;28;20494;-74
2022/04/11 08:41:31;;;;;;;5.90;3.83;;;11.30;72.20;;;;;;5026751;28;20084;-74
2022/04/11 08:43:56;;;;;;;6.25;3.85;;;11.30;72.20;;;;;;5025578;28;20509;-73
2022/04/11 08:46:23;;;;;;;6.88;3.78;;;11.30;72.80;;;;;;5008552;28;20073;-74
2022/04/11 08:48:48;;;;;;;6.32;3.90;;;11.30;72.30;;;;;;5026603;28;20036;-73
2022/04/11 08:51:14;;;;;;;7.28;4.10;;;11.30;72.30;;;;;;5025379;28;20022;-73
2022/04/11 08:53:42;;;;;;;6.63;4.03;;;11.30;72.30;;;;;;5009072;28;20578;-74
2022/04/11 08:56:07;;;;;;;6.38;4.00;;;11.40;72.30;;;;;;5025980;28;20025;-74
2022/04/11 08:58:33;;;;;;;6.00;3.90;;;11.40;72.30;;;;;;5025217;28;20487;-72
2022/04/11 09:00:58;;;;;;;6.80;3.78;;;11.40;72.80;;;;;;5026632;28;20109;-73
2022/04/11 09:03:24;;;;;;;5.75;3.60;;;11.40;72.10;;;;;;5026346;28;20029;-74
2022/04/11 09:06:22;;;;;;;6.28;3.58;;;11.50;72.00;;;;;;5024864;28;20041;-75
2022/04/11 09:08:53;;;;;;;6.40;3.70;;;11.50;71.90;;;;;;5003683;28;20042;-74
2022/04/11 09:11:29;;;;;;;6.85;4.05;;;11.50;71.90;;;;;;5026500;28;20075;-75
2022/04/11 09:13:55;;;;;;;6.75;3.80;;;11.50;72.00;;;;;;5026270;28;20097;-73
2022/04/11 09:16:20;;;;;;;7.28;3.67;;;11.50;72.00;;;;;;5024604;28;20132;-74
2022/04/11 09:18:54;;;;;;;5.57;3.42;;;11.40;72.00;;;;;;5026325;28;20112;-74
2022/04/11 09:21:22;;;;;;;6.20;4.03;;;11.40;72.00;;;;;;5008357;28;20030;-73
2022/04/11 09:23:48;;;;;;;7.22;3.80;;;11.40;72.00;;;;;;5024774;28;20040;-73
2022/04/11 09:26:22;;;;;;;5.75;3.50;;;11.40;72.00;;;;;;5025305;28;20029;-74
2022/04/11 09:29:02;;;;;;;6.35;3.60;;;11.40;72.10;;;;;;5026141;28;20026;-74
2022/04/11 09:31:28;;;;;;;6.13;3.78;;;11.50;72.10;;;;;;5008673;28;20038;-75
2022/04/11 09:33:54;;;;;;;6.63;3.60;;;11.50;72.10;;;;;;5025774;28;20025;-73
2022/04/11 09:36:20;;;;;;;6.60;3.80;;;11.40;72.00;;;;;;5007775;28;20026;-74
2022/04/11 09:38:57;;;;;;;5.88;3.53;;;11.50;72.00;;;;;;5024598;28;20402;-73
2022/04/11 09:41:28;;;;;;;5.65;3.45;;;11.50;72.00;;;;;;5025831;28;20029;-73
2022/04/11 09:43:54;;;;;;;6.10;3.40;;;11.50;71.90;;;;;;5025839;28;20079;-73
2022/04/11 09:46:19;;;;;;;6.15;3.50;;;11.60;71.80;;;;;;5024963;28;20768;-74
2022/04/11 09:48:45;;;;;;;6.15;3.90;;;11.60;72.30;;;;;;5024563;28;20487;-74
2022/04/11 09:51:13;;;;;;;6.28;3.55;;;11.60;71.60;;;;;;5025721;28;20060;-73
2022/04/11 09:53:39;;;;;;;5.43;3.38;;;11.70;71.50;;;;;;5007838;28;20064;-74
2022/04/11 09:56:08;;;;;;;5.65;3.53;;;11.70;71.40;;;;;;5025228;28;20077;-74
2022/04/11 09:58:35;;;;;;;7.20;3.88;;;11.70;71.40;;;;;;5024401;28;20112;-74
2022/04/11 10:01:03;;;;;;;7.00;3.28;;;11.70;71.30;;;;;;5025553;28;20116;-73
2022/04/11 10:03:30;;;;;;;6.13;3.60;;;11.80;71.30;;;;;;5025626;28;20509;-74
2022/04/11 10:05:57;;;;;;;5.80;3.30;;;11.80;71.40;;;;;;5025070;28;20044;-72
2022/04/11 10:08:26;;;;;;;6.68;3.63;;;11.80;71.40;;;;;;5024222;28;20041;-74
2022/04/11 10:10:54;;;;;;;6.32;3.47;;;11.80;71.40;;;;;;5024576;28;20018;-75
2022/04/11 10:13:20;;;;;;;5.97;3.72;;;11.80;71.30;;;;;;5025501;28;20059;-75
2022/04/11 10:15:46;;;;;;;6.53;3.60;;;11.80;71.20;;;;;;5024124;28;20022;-74
2022/04/11 10:18:25;;;;;;;5.75;3.60;;;11.80;71.20;;;;;;5025293;28;20025;-74
2022/04/11 10:20:57;;;;;;;6.82;3.60;;;11.90;71.20;;;;;;5025371;28;20018;-74
2022/04/11 10:23:30;;;;;;;5.47;3.20;;;11.90;71.10;;;;;;5025285;28;20029;-73
2022/04/11 10:25:59;;;;;;;6.45;3.80;;;11.90;71.00;;;;;;5025144;28;20036;-75
2022/04/11 10:28:27;;;;;;;5.50;3.40;;;11.90;71.00;;;;;;5025444;28;20025;-74
2022/04/11 10:31:10;;;;;;;6.70;3.60;;;11.90;70.90;;;;;;5024149;28;20380;-72
2022/04/11 10:33:40;;;;;;;7.50;4.13;;;12.00;70.80;;;;;;5007950;28;20029;-74
2022/04/11 10:36:25;;;;;;;7.22;4.22;;;12.00;70.70;;;;;;5007272;28;20028;-74
2022/04/11 10:39:12;;;;;;;6.82;3.78;;;11.90;70.70;;;;;;5026629;28;20033;-74
2022/04/11 10:41:56;;;;;;;6.10;3.67;;;12.00;71.00;;;;;;5011533;28;20548;-74
2022/04/11 10:44:40;;;;;;;7.45;3.90;;;12.00;71.40;;;;;;5028819;28;20797;-72
2022/04/11 10:47:11;;;;;;;6.75;4.03;;;12.00;70.90;;;;;;5028594;28;20036;-74
2022/04/11 10:49:53;;;;;;;6.32;3.75;;;11.90;70.70;;;;;;5011213;28;20403;-75
2022/04/11 10:52:31;;;;;;;6.75;3.72;;;12.00;70.70;;;;;;5028859;28;20021;-74
2022/04/11 10:55:17;;;;;;;6.20;3.65;;;12.00;70.60;;;;;;5028960;28;20402;-74
2022/04/11 10:57:44;;;;;;;6.85;4.00;;;12.20;70.60;;;;;;5028617;28;20025;-72
2022/04/11 11:00:12;;;;;;;6.90;4.18;;;12.00;70.60;;;;;;5028674;28;20033;-74
2022/04/11 11:02:52;;;;;;;6.90;3.97;;;12.00;70.40;;;;;;5028656;28;20080;-74
2022/04/11 11:05:30;;;;;;;6.93;4.30;;;12.00;70.30;;;;;;5028653;28;20029;-74
2022/04/11 11:08:11;;;;;;;6.55;3.47;;;12.00;70.30;;;;;;5028391;28;20040;-72
2022/04/11 11:10:44;;;;;;;;;;;12.00;70.90;;;;;;5029134;28;20852;-73
2022/04/11 11:13:39;;;;;;;6.57;3.67;;;12.00;70.30;;;;;;5028616;28;19971;-74
2022/04/11 11:16:07;;;;;;;6.57;4.28;;;12.10;70.90;;;;;;5028064;28;20156;-72
2022/04/11 11:18:51;;;;;;;7.10;4.25;;;12.10;70.30;;;;;;5010891;28;20037;-75
2022/04/11 11:21:44;;;;;;;7.18;4.25;;;12.10;70.80;;;;;;5022708;28;20029;-73
2022/04/11 11:24:12;;;;;;;6.63;3.83;;;12.10;70.30;;;;;;5009007;28;20025;-73
2022/04/11 11:26:57;;;;;;;6.60;4.07;;;12.10;70.30;;;;;;5027344;28;20025;-73
2022/04/11 11:29:22;;;;;;;6.93;4.03;;;12.00;70.10;;;;;;5010074;28;20029;-74
2022/04/11 11:31:53;;;;;;;6.90;3.80;;;12.10;70.10;;;;;;5027090;28;20025;-73
2022/04/11 11:34:20;;;;;;;6.50;3.78;;;12.10;70.20;;;;;;5028195;28;20068;-72
2022/04/11 11:36:47;;;;;;;6.53;3.75;;;12.10;70.20;;;;;;5010191;28;20120;-74
2022/04/11 11:39:20;;;;;;;6.80;4.28;;;12.10;70.10;;;;;;5010189;28;20029;-74
2022/04/11 11:41:48;;;;;;;7.40;4.90;;;12.10;70.00;;;;;;5010438;28;20128;-74
2022/04/11 11:44:14;;;;;;;7.85;3.95;;;12.10;70.10;;;;;;5026372;28;20079;-74
2022/04/11 11:46:53;;;;;;;5.63;3.75;;;12.10;70.00;;;;;;5027272;28;20029;-74
2022/04/11 11:49:20;;;;;;;6.95;4.40;;;12.10;70.10;;;;;;5009955;28;20063;-74
2022/04/11 11:51:46;;;;;;;7.28;4.18;;;12.10;70.00;;;;;;5027765;28;20035;-73
2022/04/11 11:54:13;;;;;;;6.57;4.03;;;12.10;70.00;;;;;;5027746;28;20032;-75
2022/04/11 11:56:43;;;;;;;7.00;4.43;;;12.10;70.10;;;;;;5009584;28;20172;-74
2022/04/11 11:59:10;;;;;;;6.53;4.20;;;12.10;70.10;;;;;;5027365;28;20034;-73
2022/04/11 12:01:35;;;;;;;6.88;4.13;;;12.10;70.10;;;;;;5027808;28;20140;-75
2022/04/11 12:04:19;;;;;;;6.40;3.85;;;12.10;70.10;;;;;;5027674;28;20108;-73
2022/04/11 12:06:52;;;;;;;6.55;4.13;;;12.10;70.10;;;;;;5009496;28;20025;-74
2022/04/11 12:09:18;;;;;;;7.10;4.30;;;12.10;70.10;;;;;;5027541;28;20025;-73
2022/04/11 12:11:43;;;;;;;6.38;3.88;;;12.10;70.20;;;;;;5027367;28;20084;-73
2022/04/11 12:14:09;;;;;;;8.32;4.43;;;12.10;70.20;;;;;;5026242;28;20021;-74
2022/04/11 12:16:54;;;;;;;6.50;3.85;;;12.10;70.20;;;;;;5026834;28;20025;-74
2022/04/11 12:19:37;;;;;;;7.47;4.30;;;12.10;70.30;;;;;;5027588;28;20086;-74
2022/04/11 12:22:14;;;;;;;6.40;4.00;;;12.10;70.40;;;;;;5009481;28;20040;-73
2022/04/11 12:24:40;;;;;;;7.45;4.60;;;12.10;70.60;;;;;;5027383;28;20029;-74
2022/04/11 12:27:10;;;;;;;6.68;4.18;;;12.10;70.50;;;;;;5026553;28;20026;-73
2022/04/11 12:29:42;;;;;;;7.28;4.00;;;12.10;70.70;;;;;;5026953;28;20106;-73
2022/04/11 12:32:14;;;;;;;5.85;3.80;;;12.10;70.70;;;;;;5009091;28;20083;-73
2022/04/11 12:34:43;;;;;;;6.30;4.03;;;12.10;70.80;;;;;;5009599;28;20599;-74
2022/04/11 12:37:10;;;;;;;7.13;4.20;;;12.10;70.90;;;;;;5026466;28;20057;-73
2022/04/11 12:40:01;;;;;;;7.93;4.38;;;12.10;71.00;;;;;;5009187;28;20094;-74
2022/04/11 12:42:28;;;;;;;6.72;4.38;;;12.00;70.90;;;;;;5009052;28;20033;-73
2022/04/11 12:45:02;;;;;;;6.32;4.10;;;12.00;70.90;;;;;;5027168;28;20029;-74
2022/04/11 12:47:28;;;;;;;6.45;4.05;;;12.00;70.90;;;;;;5026077;28;20084;-72
2022/04/11 12:49:57;;;;;;;8.85;4.78;;;12.10;71.00;;;;;;5026960;28;20843;-74